sensor_id;sensor_type;location;lat;lon;timestamp;temperature;humidity
19256;DHT22;9762;52.490;13.410;2023-06-10T00:01:54;22.70;74.80
19256;DHT22;9762;52.490;13.410;2023-06-10T00:04:23;22.60;74.90
19256;DHT22;9762;52.490;13.410;2023-06-10T00:06:49;22.60;75.10
19256;DHT22;9762;52.490;13.410;2023-06-10T00:09:15;22.60;75.10
19256;DHT22;9762;52.490;13.410;2023-06-10T00:11:41;22.60;75.20
19256;DHT22;9762;52.490;13.410;2023-06-10T00:14:07;22.60;75.20
19256;DHT22;9762;52.490;13.410;2023-06-10T00:16:33;22.60;75.20
19256;DHT22;9762;52.490;13.410;2023-06-10T00:19:00;22.60;75.90
19256;DHT22;9762;52.490;13.410;2023-06-10T00:21:29;22.60;76.10
19256;DHT22;9762;52.490;13.410;2023-06-10T00:23:56;22.60;75.40
19256;DHT22;9762;52.490;13.410;2023-06-10T00:26:22;22.50;75.60
19256;DHT22;9762;52.490;13.410;2023-06-10T00:28:48;22.50;75.60
19256;DHT22;9762;52.490;13.410;2023-06-10T00:31:14;22.40;76.10
19256;DHT22;9762;52.490;13.410;2023-06-10T00:33:39;22.40;76.40
19256;DHT22;9762;52.490;13.410;2023-06-10T00:36:05;22.40;76.50
19256;DHT22;9762;52.490;13.410;2023-06-10T00:38:31;22.50;76.70
19256;DHT22;9762;52.490;13.410;2023-06-10T00:40:57;22.20;77.10
19256;DHT22;9762;52.490;13.410;2023-06-10T00:43:23;22.20;77.20
19256;DHT22;9762;52.490;13.410;2023-06-10T00:45:49;22.20;76.60
19256;DHT22;9762;52.490;13.410;2023-06-10T00:48:14;22.20;77.50
19256;DHT22;9762;52.490;13.410;2023-06-10T00:50:40;22.20;77.40
19256;DHT22;9762;52.490;13.410;2023-06-10T00:53:06;22.10;77.60
19256;DHT22;9762;52.490;13.410;2023-06-10T00:55:32;22.10;77.60
19256;DHT22;9762;52.490;13.410;2023-06-10T00:57:58;22.10;77.70
19256;DHT22;9762;52.490;13.410;2023-06-10T01:00:25;22.10;77.70
19256;DHT22;9762;52.490;13.410;2023-06-10T01:02:51;22.10;77.70
19256;DHT22;9762;52.490;13.410;2023-06-10T01:05:18;22.10;77.70
19256;DHT22;9762;52.490;13.410;2023-06-10T01:07:50;22.10;77.50
19256;DHT22;9762;52.490;13.410;2023-06-10T01:10:36;22.10;77.70
19256;DHT22;9762;52.490;13.410;2023-06-10T01:13:07;22.10;77.80
19256;DHT22;9762;52.490;13.410;2023-06-10T01:15:37;22.10;77.90
19256;DHT22;9762;52.490;13.410;2023-06-10T01:18:07;22.00;78.00
19256;DHT22;9762;52.490;13.410;2023-06-10T01:20:41;22.00;78.30
19256;DHT22;9762;52.490;13.410;2023-06-10T01:23:10;22.00;79.00
19256;DHT22;9762;52.490;13.410;2023-06-10T01:25:40;22.00;78.10
19256;DHT22;9762;52.490;13.410;2023-06-10T01:31:08;22.00;78.20
19256;DHT22;9762;52.490;13.410;2023-06-10T01:33:43;22.00;78.20
19256;DHT22;9762;52.490;13.410;2023-06-10T01:36:11;22.00;78.20
19256;DHT22;9762;52.490;13.410;2023-06-10T01:38:40;22.00;78.10
19256;DHT22;9762;52.490;13.410;2023-06-10T01:41:07;21.90;78.70
19256;DHT22;9762;52.490;13.410;2023-06-10T01:43:34;21.90;78.60
19256;DHT22;9762;52.490;13.410;2023-06-10T01:46:00;21.90;78.60
19256;DHT22;9762;52.490;13.410;2023-06-10T01:48:27;21.90;78.50
19256;DHT22;9762;52.490;13.410;2023-06-10T01:50:52;21.80;78.90
19256;DHT22;9762;52.490;13.410;2023-06-10T01:53:18;21.80;79.20
19256;DHT22;9762;52.490;13.410;2023-06-10T01:55:44;21.80;79.50
19256;DHT22;9762;52.490;13.410;2023-06-10T01:58:09;21.80;79.40
19256;DHT22;9762;52.490;13.410;2023-06-10T02:00:35;21.80;79.40
19256;DHT22;9762;52.490;13.410;2023-06-10T02:03:01;21.80;79.40
19256;DHT22;9762;52.490;13.410;2023-06-10T02:05:26;21.80;79.30
19256;DHT22;9762;52.490;13.410;2023-06-10T02:07:52;21.80;80.00
19256;DHT22;9762;52.490;13.410;2023-06-10T02:10:18;21.80;79.30
19256;DHT22;9762;52.490;13.410;2023-06-10T02:12:43;21.80;79.20
19256;DHT22;9762;52.490;13.410;2023-06-10T02:15:09;21.80;79.60
19256;DHT22;9762;52.490;13.410;2023-06-10T02:17:34;21.70;79.70
19256;DHT22;9762;52.490;13.410;2023-06-10T02:20:00;21.70;79.60
19256;DHT22;9762;52.490;13.410;2023-06-10T02:22:31;21.70;80.00
19256;DHT22;9762;52.490;13.410;2023-06-10T02:24:57;21.60;79.80
19256;DHT22;9762;52.490;13.410;2023-06-10T02:27:23;21.60;79.90
19256;DHT22;9762;52.490;13.410;2023-06-10T02:29:48;21.60;80.00
19256;DHT22;9762;52.490;13.410;2023-06-10T02:32:14;21.60;80.00
19256;DHT22;9762;52.490;13.410;2023-06-10T02:34:40;21.70;80.00
19256;DHT22;9762;52.490;13.410;2023-06-10T02:37:08;21.60;80.30
19256;DHT22;9762;52.490;13.410;2023-06-10T02:39:33;21.60;80.30
19256;DHT22;9762;52.490;13.410;2023-06-10T02:41:59;21.60;80.30
19256;DHT22;9762;52.490;13.410;2023-06-10T02:44:25;21.50;80.40
19256;DHT22;9762;52.490;13.410;2023-06-10T02:46:50;21.60;80.40
19256;DHT22;9762;52.490;13.410;2023-06-10T02:49:16;21.60;80.40
19256;DHT22;9762;52.490;13.410;2023-06-10T02:51:42;21.50;80.60
19256;DHT22;9762;52.490;13.410;2023-06-10T02:54:07;21.50;80.50
19256;DHT22;9762;52.490;13.410;2023-06-10T02:56:33;21.50;80.50
19256;DHT22;9762;52.490;13.410;2023-06-10T02:58:59;21.50;80.70
19256;DHT22;9762;52.490;13.410;2023-06-10T03:01:25;21.50;80.70
19256;DHT22;9762;52.490;13.410;2023-06-10T03:03:51;21.50;81.00
19256;DHT22;9762;52.490;13.410;2023-06-10T03:06:17;21.50;81.00
19256;DHT22;9762;52.490;13.410;2023-06-10T03:08:43;21.10;80.80
19256;DHT22;9762;52.490;13.410;2023-06-10T03:11:09;21.40;81.20
19256;DHT22;9762;52.490;13.410;2023-06-10T03:13:35;21.30;81.70
19256;DHT22;9762;52.490;13.410;2023-06-10T03:16:01;21.30;82.00
19256;DHT22;9762;52.490;13.410;2023-06-10T03:18:28;21.30;85.70
19256;DHT22;9762;52.490;13.410;2023-06-10T03:20:54;21.30;81.80
19256;DHT22;9762;52.490;13.410;2023-06-10T03:23:20;21.30;81.70
19256;DHT22;9762;52.490;13.410;2023-06-10T03:25:46;21.30;81.80
19256;DHT22;9762;52.490;13.410;2023-06-10T03:28:12;21.30;81.70
19256;DHT22;9762;52.490;13.410;2023-06-10T03:30:38;21.30;81.80
19256;DHT22;9762;52.490;13.410;2023-06-10T03:33:03;21.30;81.80
19256;DHT22;9762;52.490;13.410;2023-06-10T03:35:32;21.30;81.80
19256;DHT22;9762;52.490;13.410;2023-06-10T03:37:58;21.30;81.70
19256;DHT22;9762;52.490;13.410;2023-06-10T03:40:24;21.30;81.80
19256;DHT22;9762;52.490;13.410;2023-06-10T03:42:50;21.30;81.90
19256;DHT22;9762;52.490;13.410;2023-06-10T03:45:15;21.30;82.10
19256;DHT22;9762;52.490;13.410;2023-06-10T03:47:41;21.30;82.10
19256;DHT22;9762;52.490;13.410;2023-06-10T03:50:09;21.30;82.10
19256;DHT22;9762;52.490;13.410;2023-06-10T03:52:38;21.30;82.10
19256;DHT22;9762;52.490;13.410;2023-06-10T03:55:04;21.30;82.30
19256;DHT22;9762;52.490;13.410;2023-06-10T03:57:30;21.30;82.20
19256;DHT22;9762;52.490;13.410;2023-06-10T03:59:56;21.30;82.20
19256;DHT22;9762;52.490;13.410;2023-06-10T04:02:22;21.30;82.10
19256;DHT22;9762;52.490;13.410;2023-06-10T04:04:48;21.30;82.10
19256;DHT22;9762;52.490;13.410;2023-06-10T04:07:13;21.40;82.00
19256;DHT22;9762;52.490;13.410;2023-06-10T04:09:39;21.40;81.80
19256;DHT22;9762;52.490;13.410;2023-06-10T04:12:05;21.50;82.40
19256;DHT22;9762;52.490;13.410;2023-06-10T04:14:34;21.50;81.50
19256;DHT22;9762;52.490;13.410;2023-06-10T04:17:01;21.60;81.40
19256;DHT22;9762;52.490;13.410;2023-06-10T04:19:27;21.60;81.30
19256;DHT22;9762;52.490;13.410;2023-06-10T04:21:54;21.60;81.10
19256;DHT22;9762;52.490;13.410;2023-06-10T04:24:19;21.70;81.10
19256;DHT22;9762;52.490;13.410;2023-06-10T04:26:45;21.70;80.80
19256;DHT22;9762;52.490;13.410;2023-06-10T04:29:11;21.70;80.80
19256;DHT22;9762;52.490;13.410;2023-06-10T04:31:37;21.80;80.90
19256;DHT22;9762;52.490;13.410;2023-06-10T04:34:02;21.80;80.70
19256;DHT22;9762;52.490;13.410;2023-06-10T04:36:28;21.80;80.80
19256;DHT22;9762;52.490;13.410;2023-06-10T04:38:55;21.80;80.60
19256;DHT22;9762;52.490;13.410;2023-06-10T04:41:21;21.70;80.60
19256;DHT22;9762;52.490;13.410;2023-06-10T04:43:47;21.70;80.60
19256;DHT22;9762;52.490;13.410;2023-06-10T04:46:13;21.70;80.60
19256;DHT22;9762;52.490;13.410;2023-06-10T04:48:39;21.70;80.60
19256;DHT22;9762;52.490;13.410;2023-06-10T04:51:05;21.80;80.60
19256;DHT22;9762;52.490;13.410;2023-06-10T04:53:31;21.80;80.40
19256;DHT22;9762;52.490;13.410;2023-06-10T04:55:57;21.80;80.40
19256;DHT22;9762;52.490;13.410;2023-06-10T04:58:23;21.80;80.40
19256;DHT22;9762;52.490;13.410;2023-06-10T05:00:49;21.80;80.40
19256;DHT22;9762;52.490;13.410;2023-06-10T05:03:14;21.80;80.40
19256;DHT22;9762;52.490;13.410;2023-06-10T05:05:40;21.90;80.40
19256;DHT22;9762;52.490;13.410;2023-06-10T05:08:06;21.90;80.30
19256;DHT22;9762;52.490;13.410;2023-06-10T05:10:31;21.90;80.30
19256;DHT22;9762;52.490;13.410;2023-06-10T05:12:58;21.90;80.50
19256;DHT22;9762;52.490;13.410;2023-06-10T05:15:24;21.90;80.60
19256;DHT22;9762;52.490;13.410;2023-06-10T05:17:50;21.90;80.80
19256;DHT22;9762;52.490;13.410;2023-06-10T05:20:15;21.90;80.80
19256;DHT22;9762;52.490;13.410;2023-06-10T05:22:41;21.90;80.70
19256;DHT22;9762;52.490;13.410;2023-06-10T05:25:07;22.00;80.60
19256;DHT22;9762;52.490;13.410;2023-06-10T05:27:33;22.00;80.50
19256;DHT22;9762;52.490;13.410;2023-06-10T05:29:58;22.10;80.50
19256;DHT22;9762;52.490;13.410;2023-06-10T05:32:24;22.10;80.30
19256;DHT22;9762;52.490;13.410;2023-06-10T05:34:50;22.20;80.30
19256;DHT22;9762;52.490;13.410;2023-06-10T05:37:15;22.30;80.10
19256;DHT22;9762;52.490;13.410;2023-06-10T05:39:41;22.30;80.10
19256;DHT22;9762;52.490;13.410;2023-06-10T05:42:07;22.30;80.10
19256;DHT22;9762;52.490;13.410;2023-06-10T05:44:33;22.30;80.20
19256;DHT22;9762;52.490;13.410;2023-06-10T05:46:59;22.40;80.20
19256;DHT22;9762;52.490;13.410;2023-06-10T05:49:25;22.40;80.30
19256;DHT22;9762;52.490;13.410;2023-06-10T05:51:50;22.40;80.50
19256;DHT22;9762;52.490;13.410;2023-06-10T05:54:18;22.50;80.40
19256;DHT22;9762;52.490;13.410;2023-06-10T05:56:44;22.60;80.20
19256;DHT22;9762;52.490;13.410;2023-06-10T05:59:09;22.70;80.00
19256;DHT22;9762;52.490;13.410;2023-06-10T06:01:35;22.80;79.60
19256;DHT22;9762;52.490;13.410;2023-06-10T06:04:01;22.90;80.10
19256;DHT22;9762;52.490;13.410;2023-06-10T06:06:26;23.00;79.00
19256;DHT22;9762;52.490;13.410;2023-06-10T06:08:52;23.10;78.60
19256;DHT22;9762;52.490;13.410;2023-06-10T06:11:18;23.10;78.50
19256;DHT22;9762;52.490;13.410;2023-06-10T06:13:43;23.00;78.50
19256;DHT22;9762;52.490;13.410;2023-06-10T06:16:09;23.10;78.50
19256;DHT22;9762;52.490;13.410;2023-06-10T06:18:34;23.10;78.30
19256;DHT22;9762;52.490;13.410;2023-06-10T06:21:00;23.10;78.30
19256;DHT22;9762;52.490;13.410;2023-06-10T06:23:26;23.20;78.20
19256;DHT22;9762;52.490;13.410;2023-06-10T06:25:51;23.30;78.10
19256;DHT22;9762;52.490;13.410;2023-06-10T06:28:17;23.40;77.90
19256;DHT22;9762;52.490;13.410;2023-06-10T06:30:44;23.40;77.50
19256;DHT22;9762;52.490;13.410;2023-06-10T06:33:10;23.50;77.30
19256;DHT22;9762;52.490;13.410;2023-06-10T06:35:36;23.50;77.20
19256;DHT22;9762;52.490;13.410;2023-06-10T06:38:03;23.60;77.10
19256;DHT22;9762;52.490;13.410;2023-06-10T06:40:29;23.70;76.70
19256;DHT22;9762;52.490;13.410;2023-06-10T06:42:55;23.80;76.50
19256;DHT22;9762;52.490;13.410;2023-06-10T06:45:21;23.80;76.10
19256;DHT22;9762;52.490;13.410;2023-06-10T06:47:46;23.90;75.90
19256;DHT22;9762;52.490;13.410;2023-06-10T06:50:12;24.00;75.80
19256;DHT22;9762;52.490;13.410;2023-06-10T06:52:38;24.00;75.50
19256;DHT22;9762;52.490;13.410;2023-06-10T06:55:04;24.00;75.30
19256;DHT22;9762;52.490;13.410;2023-06-10T06:57:29;23.90;75.50
19256;DHT22;9762;52.490;13.410;2023-06-10T06:59:55;24.00;75.50
19256;DHT22;9762;52.490;13.410;2023-06-10T07:02:21;24.10;75.40
19256;DHT22;9762;52.490;13.410;2023-06-10T07:04:46;24.10;75.20
19256;DHT22;9762;52.490;13.410;2023-06-10T07:07:15;24.20;74.80
19256;DHT22;9762;52.490;13.410;2023-06-10T07:09:40;24.20;74.60
19256;DHT22;9762;52.490;13.410;2023-06-10T07:12:07;24.30;74.60
19256;DHT22;9762;52.490;13.410;2023-06-10T07:14:32;24.30;74.50
19256;DHT22;9762;52.490;13.410;2023-06-10T07:16:58;24.40;74.40
19256;DHT22;9762;52.490;13.410;2023-06-10T07:19:25;24.50;74.30
19256;DHT22;9762;52.490;13.410;2023-06-10T07:21:51;24.50;73.90
19256;DHT22;9762;52.490;13.410;2023-06-10T07:24:16;24.60;74.00
19256;DHT22;9762;52.490;13.410;2023-06-10T07:26:42;24.60;73.70
19256;DHT22;9762;52.490;13.410;2023-06-10T07:29:08;24.60;73.70
19256;DHT22;9762;52.490;13.410;2023-06-10T07:31:33;24.70;73.40
19256;DHT22;9762;52.490;13.410;2023-06-10T07:33:59;24.90;73.30
19256;DHT22;9762;52.490;13.410;2023-06-10T07:36:25;24.90;72.80
19256;DHT22;9762;52.490;13.410;2023-06-10T07:38:54;25.00;72.70
19256;DHT22;9762;52.490;13.410;2023-06-10T07:41:20;25.00;72.70
19256;DHT22;9762;52.490;13.410;2023-06-10T07:43:45;25.10;72.70
19256;DHT22;9762;52.490;13.410;2023-06-10T07:46:11;25.10;72.40
19256;DHT22;9762;52.490;13.410;2023-06-10T07:48:37;25.20;72.20
19256;DHT22;9762;52.490;13.410;2023-06-10T07:51:02;25.30;72.40
19256;DHT22;9762;52.490;13.410;2023-06-10T07:53:28;25.30;71.80
19256;DHT22;9762;52.490;13.410;2023-06-10T07:55:53;25.30;71.80
19256;DHT22;9762;52.490;13.410;2023-06-10T07:58:19;25.40;71.60
19256;DHT22;9762;52.490;13.410;2023-06-10T08:00:46;25.50;71.50
19256;DHT22;9762;52.490;13.410;2023-06-10T08:03:11;25.40;71.50
19256;DHT22;9762;52.490;13.410;2023-06-10T08:05:38;25.30;71.70
19256;DHT22;9762;52.490;13.410;2023-06-10T08:08:04;25.40;71.80
19256;DHT22;9762;52.490;13.410;2023-06-10T08:10:30;25.40;71.80
19256;DHT22;9762;52.490;13.410;2023-06-10T08:15:22;25.60;70.80
19256;DHT22;9762;52.490;13.410;2023-06-10T08:17:48;25.80;71.60
19256;DHT22;9762;52.490;13.410;2023-06-10T08:20:13;25.90;71.00
19256;DHT22;9762;52.490;13.410;2023-06-10T08:22:39;26.00;70.80
19256;DHT22;9762;52.490;13.410;2023-06-10T08:25:05;26.10;70.50
19256;DHT22;9762;52.490;13.410;2023-06-10T08:27:31;26.00;69.90
19256;DHT22;9762;52.490;13.410;2023-06-10T08:29:56;26.20;69.70
19256;DHT22;9762;52.490;13.410;2023-06-10T08:32:22;26.20;69.10
19256;DHT22;9762;52.490;13.410;2023-06-10T08:34:47;26.30;68.90
19256;DHT22;9762;52.490;13.410;2023-06-10T08:37:13;26.30;68.80
19256;DHT22;9762;52.490;13.410;2023-06-10T08:39:39;26.30;68.80
19256;DHT22;9762;52.490;13.410;2023-06-10T08:42:20;26.40;68.80
19256;DHT22;9762;52.490;13.410;2023-06-10T08:44:53;26.50;68.50
19256;DHT22;9762;52.490;13.410;2023-06-10T08:47:22;26.60;68.50
19256;DHT22;9762;52.490;13.410;2023-06-10T08:49:49;26.80;68.60
19256;DHT22;9762;52.490;13.410;2023-06-10T08:52:17;26.80;67.70
19256;DHT22;9762;52.490;13.410;2023-06-10T08:54:54;26.90;67.90
19256;DHT22;9762;52.490;13.410;2023-06-10T08:57:22;27.00;67.30
19256;DHT22;9762;52.490;13.410;2023-06-10T08:59:48;27.10;66.60
19256;DHT22;9762;52.490;13.410;2023-06-10T09:02:15;27.20;66.40
19256;DHT22;9762;52.490;13.410;2023-06-10T09:04:43;27.20;66.00
19256;DHT22;9762;52.490;13.410;2023-06-10T09:07:10;27.30;65.90
19256;DHT22;9762;52.490;13.410;2023-06-10T09:09:36;27.40;65.90
19256;DHT22;9762;52.490;13.410;2023-06-10T09:12:03;27.50;65.70
19256;DHT22;9762;52.490;13.410;2023-06-10T09:14:28;27.50;65.40
19256;DHT22;9762;52.490;13.410;2023-06-10T09:16:54;27.50;65.40
19256;DHT22;9762;52.490;13.410;2023-06-10T09:19:24;27.50;65.40
19256;DHT22;9762;52.490;13.410;2023-06-10T09:21:50;27.60;65.60
19256;DHT22;9762;52.490;13.410;2023-06-10T09:24:16;27.60;65.60
19256;DHT22;9762;52.490;13.410;2023-06-10T09:26:43;27.80;65.20
19256;DHT22;9762;52.490;13.410;2023-06-10T09:29:09;27.90;64.60
19256;DHT22;9762;52.490;13.410;2023-06-10T09:31:38;28.00;64.30
19256;DHT22;9762;52.490;13.410;2023-06-10T09:34:25;28.00;63.90
19256;DHT22;9762;52.490;13.410;2023-06-10T09:36:50;28.10;63.90
19256;DHT22;9762;52.490;13.410;2023-06-10T09:39:17;28.10;63.90
19256;DHT22;9762;52.490;13.410;2023-06-10T09:41:44;28.20;63.90
19256;DHT22;9762;52.490;13.410;2023-06-10T09:44:14;28.30;63.90
19256;DHT22;9762;52.490;13.410;2023-06-10T09:46:40;28.40;63.60
19256;DHT22;9762;52.490;13.410;2023-06-10T09:49:06;28.40;63.10
19256;DHT22;9762;52.490;13.410;2023-06-10T09:51:32;28.50;63.00
19256;DHT22;9762;52.490;13.410;2023-06-10T09:53:58;28.60;62.50
19256;DHT22;9762;52.490;13.410;2023-06-10T09:56:35;28.60;62.00
19256;DHT22;9762;52.490;13.410;2023-06-10T09:59:01;28.50;62.00
19256;DHT22;9762;52.490;13.410;2023-06-10T10:01:28;28.50;61.80
19256;DHT22;9762;52.490;13.410;2023-06-10T10:03:53;28.50;61.40
19256;DHT22;9762;52.490;13.410;2023-06-10T10:06:20;28.50;61.30
19256;DHT22;9762;52.490;13.410;2023-06-10T10:08:48;28.30;60.90
19256;DHT22;9762;52.490;13.410;2023-06-10T10:11:16;28.20;61.40
19256;DHT22;9762;52.490;13.410;2023-06-10T10:13:48;28.20;61.20
19256;DHT22;9762;52.490;13.410;2023-06-10T10:16:21;28.10;60.60
19256;DHT22;9762;52.490;13.410;2023-06-10T10:19:04;28.10;60.60
19256;DHT22;9762;52.490;13.410;2023-06-10T10:21:38;27.90;60.80
19256;DHT22;9762;52.490;13.410;2023-06-10T10:24:30;27.90;61.00
19256;DHT22;9762;52.490;13.410;2023-06-10T10:26:59;27.90;60.80
19256;DHT22;9762;52.490;13.410;2023-06-10T10:29:31;27.80;60.60
19256;DHT22;9762;52.490;13.410;2023-06-10T10:31:59;27.70;60.40
19256;DHT22;9762;52.490;13.410;2023-06-10T10:37:36;27.50;60.30
19256;DHT22;9762;52.490;13.410;2023-06-10T10:40:03;27.40;59.90
19256;DHT22;9762;52.490;13.410;2023-06-10T10:42:29;27.30;59.40
19256;DHT22;9762;52.490;13.410;2023-06-10T10:44:55;27.30;59.20
19256;DHT22;9762;52.490;13.410;2023-06-10T10:47:22;27.30;59.10
19256;DHT22;9762;52.490;13.410;2023-06-10T10:49:51;27.30;58.80
19256;DHT22;9762;52.490;13.410;2023-06-10T10:52:18;27.30;58.10
19256;DHT22;9762;52.490;13.410;2023-06-10T10:54:46;27.30;57.40
19256;DHT22;9762;52.490;13.410;2023-06-10T10:57:13;27.40;57.20
19256;DHT22;9762;52.490;13.410;2023-06-10T11:02:08;27.70;58.00
19256;DHT22;9762;52.490;13.410;2023-06-10T11:04:34;27.80;56.80
19256;DHT22;9762;52.490;13.410;2023-06-10T11:07:06;28.00;57.10
19256;DHT22;9762;52.490;13.410;2023-06-10T11:09:32;28.10;56.20
19256;DHT22;9762;52.490;13.410;2023-06-10T11:11:58;28.20;55.70
19256;DHT22;9762;52.490;13.410;2023-06-10T11:14:29;28.30;55.80
19256;DHT22;9762;52.490;13.410;2023-06-10T11:16:57;28.50;55.40
19256;DHT22;9762;52.490;13.410;2023-06-10T11:19:36;28.60;56.00
19256;DHT22;9762;52.490;13.410;2023-06-10T11:22:06;28.70;56.30
19256;DHT22;9762;52.490;13.410;2023-06-10T11:24:32;28.80;54.80
19256;DHT22;9762;52.490;13.410;2023-06-10T11:27:38;28.90;54.30
19256;DHT22;9762;52.490;13.410;2023-06-10T11:30:19;29.00;54.60
19256;DHT22;9762;52.490;13.410;2023-06-10T11:32:50;29.00;55.60
19256;DHT22;9762;52.490;13.410;2023-06-10T11:35:18;29.10;54.60
19256;DHT22;9762;52.490;13.410;2023-06-10T11:37:43;29.20;53.90
19256;DHT22;9762;52.490;13.410;2023-06-10T11:40:10;29.40;53.70
19256;DHT22;9762;52.490;13.410;2023-06-10T11:42:41;29.40;53.00
19256;DHT22;9762;52.490;13.410;2023-06-10T11:45:07;29.50;53.00
19256;DHT22;9762;52.490;13.410;2023-06-10T11:47:33;29.50;52.70
19256;DHT22;9762;52.490;13.410;2023-06-10T11:49:59;29.60;53.20
19256;DHT22;9762;52.490;13.410;2023-06-10T11:52:30;29.70;52.90
19256;DHT22;9762;52.490;13.410;2023-06-10T11:54:57;29.80;53.10
19256;DHT22;9762;52.490;13.410;2023-06-10T11:57:23;29.80;53.00
19256;DHT22;9762;52.490;13.410;2023-06-10T11:59:49;29.90;52.80
19256;DHT22;9762;52.490;13.410;2023-06-10T12:02:15;29.90;52.90
19256;DHT22;9762;52.490;13.410;2023-06-10T12:04:41;29.80;52.70
19256;DHT22;9762;52.490;13.410;2023-06-10T12:07:07;29.80;52.90
19256;DHT22;9762;52.490;13.410;2023-06-10T12:09:33;29.80;54.10
19256;DHT22;9762;52.490;13.410;2023-06-10T12:12:03;29.80;54.60
19256;DHT22;9762;52.490;13.410;2023-06-10T12:17:36;29.70;54.80
19256;DHT22;9762;52.490;13.410;2023-06-10T12:20:07;29.80;54.00
19256;DHT22;9762;52.490;13.410;2023-06-10T12:22:40;29.80;53.30
19256;DHT22;9762;52.490;13.410;2023-06-10T12:25:07;29.80;52.70
19256;DHT22;9762;52.490;13.410;2023-06-10T12:27:34;29.80;52.30
19256;DHT22;9762;52.490;13.410;2023-06-10T12:30:01;29.80;52.00
19256;DHT22;9762;52.490;13.410;2023-06-10T12:32:43;29.90;52.70
19256;DHT22;9762;52.490;13.410;2023-06-10T12:35:10;29.70;53.70
19256;DHT22;9762;52.490;13.410;2023-06-10T12:37:36;29.80;54.10
19256;DHT22;9762;52.490;13.410;2023-06-10T12:40:03;29.90;54.30
19256;DHT22;9762;52.490;13.410;2023-06-10T12:42:29;30.00;54.70
19256;DHT22;9762;52.490;13.410;2023-06-10T12:44:56;30.10;54.30
19256;DHT22;9762;52.490;13.410;2023-06-10T12:47:32;30.20;54.50
19256;DHT22;9762;52.490;13.410;2023-06-10T12:50:00;30.30;54.50
19256;DHT22;9762;52.490;13.410;2023-06-10T12:52:26;30.40;54.50
19256;DHT22;9762;52.490;13.410;2023-06-10T12:54:53;30.50;54.30
19256;DHT22;9762;52.490;13.410;2023-06-10T12:57:19;30.60;54.60
19256;DHT22;9762;52.490;13.410;2023-06-10T12:59:45;30.60;54.70
19256;DHT22;9762;52.490;13.410;2023-06-10T13:02:16;30.70;54.70
19256;DHT22;9762;52.490;13.410;2023-06-10T13:04:45;30.80;55.20
19256;DHT22;9762;52.490;13.410;2023-06-10T13:07:11;30.60;56.10
19256;DHT22;9762;52.490;13.410;2023-06-10T13:09:37;30.70;55.50
19256;DHT22;9762;52.490;13.410;2023-06-10T13:12:02;30.80;55.30
19256;DHT22;9762;52.490;13.410;2023-06-10T13:14:28;30.90;54.90
19256;DHT22;9762;52.490;13.410;2023-06-10T13:16:55;30.80;54.60
19256;DHT22;9762;52.490;13.410;2023-06-10T13:19:20;30.90;54.50
19256;DHT22;9762;52.490;13.410;2023-06-10T13:21:51;30.90;54.90
19256;DHT22;9762;52.490;13.410;2023-06-10T13:24:17;31.00;54.60
19256;DHT22;9762;52.490;13.410;2023-06-10T13:26:42;31.10;54.40
19256;DHT22;9762;52.490;13.410;2023-06-10T13:29:08;31.30;54.10
19256;DHT22;9762;52.490;13.410;2023-06-10T13:31:39;31.30;54.20
19256;DHT22;9762;52.490;13.410;2023-06-10T13:34:05;31.30;54.30
19256;DHT22;9762;52.490;13.410;2023-06-10T13:36:31;31.30;54.30
19256;DHT22;9762;52.490;13.410;2023-06-10T13:38:57;31.30;54.20
19256;DHT22;9762;52.490;13.410;2023-06-10T13:41:23;31.20;54.00
19256;DHT22;9762;52.490;13.410;2023-06-10T13:43:48;31.20;53.70
19256;DHT22;9762;52.490;13.410;2023-06-10T13:46:14;31.30;53.30
19256;DHT22;9762;52.490;13.410;2023-06-10T13:48:40;31.50;53.40
19256;DHT22;9762;52.490;13.410;2023-06-10T13:51:06;31.60;53.70
19256;DHT22;9762;52.490;13.410;2023-06-10T13:53:32;31.60;53.30
19256;DHT22;9762;52.490;13.410;2023-06-10T13:55:57;31.50;53.80
19256;DHT22;9762;52.490;13.410;2023-06-10T13:58:23;31.60;53.90
19256;DHT22;9762;52.490;13.410;2023-06-10T14:00:49;31.50;53.90
19256;DHT22;9762;52.490;13.410;2023-06-10T14:03:14;31.50;54.00
19256;DHT22;9762;52.490;13.410;2023-06-10T14:05:40;31.40;54.00
19256;DHT22;9762;52.490;13.410;2023-06-10T14:08:06;31.40;54.00
19256;DHT22;9762;52.490;13.410;2023-06-10T14:10:31;31.40;53.90
19256;DHT22;9762;52.490;13.410;2023-06-10T14:12:57;31.40;53.90
19256;DHT22;9762;52.490;13.410;2023-06-10T14:15:23;31.30;53.50
19256;DHT22;9762;52.490;13.410;2023-06-10T14:17:48;31.20;53.80
19256;DHT22;9762;52.490;13.410;2023-06-10T14:20:14;30.90;53.30
19256;DHT22;9762;52.490;13.410;2023-06-10T14:22:39;30.80;52.70
19256;DHT22;9762;52.490;13.410;2023-06-10T14:25:06;30.60;52.60
19256;DHT22;9762;52.490;13.410;2023-06-10T14:27:31;30.50;52.60
19256;DHT22;9762;52.490;13.410;2023-06-10T14:29:57;30.60;52.60
19256;DHT22;9762;52.490;13.410;2023-06-10T14:32:23;30.50;52.40
19256;DHT22;9762;52.490;13.410;2023-06-10T14:34:48;30.60;52.20
19256;DHT22;9762;52.490;13.410;2023-06-10T14:37:14;30.60;51.90
19256;DHT22;9762;52.490;13.410;2023-06-10T14:39:40;30.70;51.70
19256;DHT22;9762;52.490;13.410;2023-06-10T14:42:05;30.90;51.40
19256;DHT22;9762;52.490;13.410;2023-06-10T14:44:31;31.00;51.10
19256;DHT22;9762;52.490;13.410;2023-06-10T14:46:57;31.20;50.60
19256;DHT22;9762;52.490;13.410;2023-06-10T14:49:22;31.40;50.50
19256;DHT22;9762;52.490;13.410;2023-06-10T14:51:48;31.70;49.90
19256;DHT22;9762;52.490;13.410;2023-06-10T14:54:15;31.80;49.30
19256;DHT22;9762;52.490;13.410;2023-06-10T14:56:41;32.00;48.90
19256;DHT22;9762;52.490;13.410;2023-06-10T14:59:06;32.10;48.90
19256;DHT22;9762;52.490;13.410;2023-06-10T15:01:32;32.20;47.80
19256;DHT22;9762;52.490;13.410;2023-06-10T15:03:57;32.20;47.90
19256;DHT22;9762;52.490;13.410;2023-06-10T15:06:23;32.30;47.60
19256;DHT22;9762;52.490;13.410;2023-06-10T15:08:49;32.50;47.20
19256;DHT22;9762;52.490;13.410;2023-06-10T15:11:15;32.60;47.10
19256;DHT22;9762;52.490;13.410;2023-06-10T15:13:41;32.70;46.80
19256;DHT22;9762;52.490;13.410;2023-06-10T15:16:06;32.70;46.80
19256;DHT22;9762;52.490;13.410;2023-06-10T15:18:32;32.90;46.80
19256;DHT22;9762;52.490;13.410;2023-06-10T15:20:58;32.80;46.20
19256;DHT22;9762;52.490;13.410;2023-06-10T15:23:24;32.90;46.20
19256;DHT22;9762;52.490;13.410;2023-06-10T15:25:50;32.80;46.20
19256;DHT22;9762;52.490;13.410;2023-06-10T15:28:15;32.80;45.90
19256;DHT22;9762;52.490;13.410;2023-06-10T15:30:41;32.80;45.90
19256;DHT22;9762;52.490;13.410;2023-06-10T15:33:07;32.70;45.40
19256;DHT22;9762;52.490;13.410;2023-06-10T15:35:33;32.60;45.40
19256;DHT22;9762;52.490;13.410;2023-06-10T15:37:58;32.50;45.30
19256;DHT22;9762;52.490;13.410;2023-06-10T15:40:24;32.50;45.00
19256;DHT22;9762;52.490;13.410;2023-06-10T15:42:50;32.60;44.90